sensor_id;sensor_type;location;lat;lon;timestamp;pressure;altitude;pressure_sealevel;temperature;humidity
52105;BME280;38103;42.776;23.112;2023-04-06T00:00:48;93696.75;;;-1.18;100.00
52105;BME280;38103;42.776;23.112;2023-04-06T00:03:14;93687.06;;;-1.24;100.00
52105;BME280;38103;42.776;23.112;2023-04-06T00:05:39;93692.09;;;-1.31;100.00
52105;BME280;38103;42.776;23.112;2023-04-06T00:08:05;93690.13;;;-1.29;100.00
52105;BME280;38103;42.776;23.112;2023-04-06T00:10:30;93633.84;;;-1.60;100.00
52105;BME280;38103;42.776;23.112;2023-04-06T00:12:57;93683.03;;;-1.27;100.00
52105;BME280;38103;42.776;23.112;2023-04-06T00:15:23;93684.94;;;-1.29;100.00
52105;BME280;38103;42.776;23.112;2023-04-06T00:17:48;93681.06;;;-1.25;100.00
52105;BME280;38103;42.776;23.112;2023-04-06T00:20:14;93683.97;;;-1.19;100.00
52105;BME280;38103;42.776;23.112;2023-04-06T00:22:39;93674.84;;;-1.15;100.00
52105;BME280;38103;42.776;23.112;2023-04-06T00:25:05;93673.72;;;-1.13;100.00
52105;BME280;38103;42.776;23.112;2023-04-06T00:27:31;93648.81;;;-1.30;100.00
52105;BME280;38103;42.776;23.112;2023-04-06T00:29:56;93665.28;;;-1.15;100.00
52105;BME280;38103;42.776;23.112;2023-04-06T00:32:22;93660.31;;;-1.25;100.00
52105;BME280;38103;42.776;23.112;2023-04-06T00:34:47;93655.97;;;-1.32;100.00
52105;BME280;38103;42.776;23.112;2023-04-06T00:37:12;93641.25;;;-1.40;100.00
52105;BME280;38103;42.776;23.112;2023-04-06T00:39:38;93653.69;;;-1.36;100.00
52105;BME280;38103;42.776;23.112;2023-04-06T00:42:13;93653.88;;;-1.37;100.00
52105;BME280;38103;42.776;23.112;2023-04-06T00:44:43;93643.66;;;-1.39;100.00
52105;BME280;38103;42.776;23.112;2023-04-06T00:47:08;93646.75;;;-1.43;100.00
52105;BME280;38103;42.776;23.112;2023-04-06T00:49:34;93643.50;;;-1.37;100.00
52105;BME280;38103;42.776;23.112;2023-04-06T00:52:00;93644.47;;;-1.38;100.00
52105;BME280;38103;42.776;23.112;2023-04-06T00:54:27;93644.59;;;-1.31;100.00
52105;BME280;38103;42.776;23.112;2023-04-06T00:56:52;93646.09;;;-1.37;100.00
52105;BME280;38103;42.776;23.112;2023-04-06T00:59:18;93651.72;;;-1.33;100.00
52105;BME280;38103;42.776;23.112;2023-04-06T01:01:43;93643.00;;;-1.32;100.00
52105;BME280;38103;42.776;23.112;2023-04-06T01:04:09;93642.47;;;-1.28;100.00
52105;BME280;38103;42.776;23.112;2023-04-06T01:06:35;93642.16;;;-1.25;100.00
52105;BME280;38103;42.776;23.112;2023-04-06T01:09:00;93637.94;;;-1.26;100.00
52105;BME280;38103;42.776;23.112;2023-04-06T01:11:26;93635.97;;;-1.24;100.00
52105;BME280;38103;42.776;23.112;2023-04-06T01:13:52;93619.84;;;-1.34;100.00
52105;BME280;38103;42.776;23.112;2023-04-06T01:16:17;93633.75;;;-1.35;100.00
52105;BME280;38103;42.776;23.112;2023-04-06T01:18:43;93633.13;;;-1.37;100.00
52105;BME280;38103;42.776;23.112;2023-04-06T01:21:09;93630.53;;;-1.37;100.00
52105;BME280;38103;42.776;23.112;2023-04-06T01:23:41;93625.69;;;-1.40;100.00
52105;BME280;38103;42.776;23.112;2023-04-06T01:26:07;93619.84;;;-1.34;100.00
52105;BME280;38103;42.776;23.112;2023-04-06T01:28:32;93629.84;;;-1.31;100.00
52105;BME280;38103;42.776;23.112;2023-04-06T01:30:58;93623.69;;;-1.30;100.00
52105;BME280;38103;42.776;23.112;2023-04-06T01:33:23;93621.09;;;-1.30;100.00
52105;BME280;38103;42.776;23.112;2023-04-06T01:35:48;93623.19;;;-1.25;100.00
52105;BME280;38103;42.776;23.112;2023-04-06T01:38:14;93627.56;;;-1.26;100.00
52105;BME280;38103;42.776;23.112;2023-04-06T01:40:40;93624.31;;;-1.28;100.00
52105;BME280;38103;42.776;23.112;2023-04-06T01:43:06;93624.00;;;-1.25;100.00
52105;BME280;38103;42.776;23.112;2023-04-06T01:45:31;93625.25;;;-1.20;100.00
52105;BME280;38103;42.776;23.112;2023-04-06T01:47:57;93624.00;;;-1.25;100.00
52105;BME280;38103;42.776;23.112;2023-04-06T01:50:22;93616.03;;;-1.23;100.00
52105;BME280;38103;42.776;23.112;2023-04-06T01:52:48;93614.88;;;-1.20;100.00
52105;BME280;38103;42.776;23.112;2023-04-06T01:55:13;93618.78;;;-1.16;100.00
52105;BME280;38103;42.776;23.112;2023-04-06T01:57:38;93613.75;;;-1.18;100.00
52105;BME280;38103;42.776;23.112;2023-04-06T02:00:04;93617.78;;;-1.15;100.00
52105;BME280;38103;42.776;23.112;2023-04-06T02:02:30;93609.38;;;-1.17;100.00
52105;BME280;38103;42.776;23.112;2023-04-06T02:04:56;93616.34;;;-1.18;100.00
52105;BME280;38103;42.776;23.112;2023-04-06T02:07:21;93562.19;;;-1.44;100.00
52105;BME280;38103;42.776;23.112;2023-04-06T02:09:46;93604.66;;;-1.14;100.00
52105;BME280;38103;42.776;23.112;2023-04-06T02:12:12;93607.41;;;-1.15;100.00
52105;BME280;38103;42.776;23.112;2023-04-06T02:14:37;93605.09;;;-1.10;100.00
52105;BME280;38103;42.776;23.112;2023-04-06T02:17:02;93608.69;;;-1.11;100.00
52105;BME280;38103;42.776;23.112;2023-04-06T02:19:28;93607.06;;;-1.12;100.00
52105;BME280;38103;42.776;23.112;2023-04-06T02:21:53;93600.72;;;-1.09;100.00
52105;BME280;38103;42.776;23.112;2023-04-06T02:24:19;93603.50;;;-1.11;100.00
52105;BME280;38103;42.776;23.112;2023-04-06T02:26:44;93596.34;;;-1.09;100.00
52105;BME280;38103;42.776;23.112;2023-04-06T02:29:09;93602.22;;;-1.15;100.00
52105;BME280;38103;42.776;23.112;2023-04-06T02:31:35;93598.16;;;-1.18;100.00
52105;BME280;38103;42.776;23.112;2023-04-06T02:34:01;93600.00;;;-1.27;100.00
52105;BME280;38103;42.776;23.112;2023-04-06T02:36:26;93605.03;;;-1.25;100.00
52105;BME280;38103;42.776;23.112;2023-04-06T02:38:52;93604.22;;;-1.26;100.00
52105;BME280;38103;42.776;23.112;2023-04-06T02:41:17;93604.50;;;-1.20;100.00
52105;BME280;38103;42.776;23.112;2023-04-06T02:43:42;93612.25;;;-1.12;100.00
52105;BME280;38103;42.776;23.112;2023-04-06T02:46:08;93611.09;;;-1.09;100.00
52105;BME280;38103;42.776;23.112;2023-04-06T02:48:33;93611.91;;;-1.09;100.00
52105;BME280;38103;42.776;23.112;2023-04-06T02:51:01;93563.44;;;-1.40;100.00
52105;BME280;38103;42.776;23.112;2023-04-06T02:53:26;93615.09;;;-0.98;100.00
52105;BME280;38103;42.776;23.112;2023-04-06T02:55:53;93614.47;;;-1.00;100.00
52105;BME280;38103;42.776;23.112;2023-04-06T02:58:18;93617.56;;;-1.05;100.00
52105;BME280;38103;42.776;23.112;2023-04-06T03:00:43;93608.91;;;-0.97;100.00
52105;BME280;38103;42.776;23.112;2023-04-06T03:03:09;93607.78;;;-0.95;100.00
52105;BME280;38103;42.776;23.112;2023-04-06T03:05:34;93608.25;;;-0.91;100.00
52105;BME280;38103;42.776;23.112;2023-04-06T03:08:00;93602.72;;;-0.88;100.00
52105;BME280;38103;42.776;23.112;2023-04-06T03:10:25;93603.06;;;-0.91;100.00
52105;BME280;38103;42.776;23.112;2023-04-06T03:12:50;93605.94;;;-0.86;100.00
52105;BME280;38103;42.776;23.112;2023-04-06T03:15:16;93612.75;;;-0.85;100.00
52105;BME280;38103;42.776;23.112;2023-04-06T03:17:41;93598.78;;;-0.84;100.00
52105;BME280;38103;42.776;23.112;2023-04-06T03:20:07;93609.91;;;-0.98;100.00
52105;BME280;38103;42.776;23.112;2023-04-06T03:22:32;93609.41;;;-0.94;100.00
52105;BME280;38103;42.776;23.112;2023-04-06T03:24:58;93611.00;;;-0.93;100.00
52105;BME280;38103;42.776;23.112;2023-04-06T03:27:23;93610.88;;;-0.99;100.00
52105;BME280;38103;42.776;23.112;2023-04-06T03:29:48;93610.25;;;-1.02;100.00
52105;BME280;38103;42.776;23.112;2023-04-06T03:32:14;93600.06;;;-1.03;100.00
52105;BME280;38103;42.776;23.112;2023-04-06T03:34:39;93606.94;;;-1.19;100.00
52105;BME280;38103;42.776;23.112;2023-04-06T03:37:05;93612.25;;;-1.12;100.00
52105;BME280;38103;42.776;23.112;2023-04-06T03:39:30;93604.78;;;-1.07;100.00
52105;BME280;38103;42.776;23.112;2023-04-06T03:41:56;93605.41;;;-1.05;100.00
52105;BME280;38103;42.776;23.112;2023-04-06T03:44:21;93597.63;;;-1.05;100.00
52105;BME280;38103;42.776;23.112;2023-04-06T03:46:46;93606.63;;;-0.92;100.00
52105;BME280;38103;42.776;23.112;2023-04-06T03:49:12;93608.25;;;-0.91;100.00
52105;BME280;38103;42.776;23.112;2023-04-06T03:51:37;93605.31;;;-0.88;100.00
52105;BME280;38103;42.776;23.112;2023-04-06T03:54:03;93604.78;;;-0.83;100.00
52105;BME280;38103;42.776;23.112;2023-04-06T03:56:28;93600.22;;;-0.81;100.00
52105;BME280;38103;42.776;23.112;2023-04-06T03:58:54;93606.56;;;-0.84;100.00
52105;BME280;38103;42.776;23.112;2023-04-06T04:01:19;93608.69;;;-0.87;100.00
52105;BME280;38103;42.776;23.112;2023-04-06T04:03:44;93602.06;;;-0.90;100.00
52105;BME280;38103;42.776;23.112;2023-04-06T04:06:10;93601.09;;;-0.89;100.00
52105;BME280;38103;42.776;23.112;2023-04-06T04:08:35;93594.41;;;-0.83;100.00
52105;BME280;38103;42.776;23.112;2023-04-06T04:11:01;93598.44;;;-0.81;100.00
52105;BME280;38103;42.776;23.112;2023-04-06T04:13:26;93601.06;;;-0.81;100.00
52105;BME280;38103;42.776;23.112;2023-04-06T04:15:52;93593.94;;;-0.87;100.00
52105;BME280;38103;42.776;23.112;2023-04-06T04:18:18;93600.06;;;-0.80;100.00
52105;BME280;38103;42.776;23.112;2023-04-06T04:20:43;93603.00;;;-0.83;100.00
52105;BME280;38103;42.776;23.112;2023-04-06T04:23:09;93597.16;;;-0.85;100.00
52105;BME280;38103;42.776;23.112;2023-04-06T04:25:34;93599.47;;;-0.90;100.00
52105;BME280;38103;42.776;23.112;2023-04-06T04:28:00;93599.84;;;-0.93;100.00
52105;BME280;38103;42.776;23.112;2023-04-06T04:30:25;93605.81;;;-0.93;100.00
52105;BME280;38103;42.776;23.112;2023-04-06T04:32:50;93600.81;;;-0.94;100.00
52105;BME280;38103;42.776;23.112;2023-04-06T04:35:16;93600.84;;;-1.03;100.00
52105;BME280;38103;42.776;23.112;2023-04-06T04:37:41;93586.66;;;-1.15;100.00
52105;BME280;38103;42.776;23.112;2023-04-06T04:40:07;93598.63;;;-1.06;100.00
52105;BME280;38103;42.776;23.112;2023-04-06T04:42:33;93598.25;;;-1.03;100.00
52105;BME280;38103;42.776;23.112;2023-04-06T04:44:59;93603.13;;;-1.08;100.00
52105;BME280;38103;42.776;23.112;2023-04-06T04:47:25;93602.81;;;-1.05;100.00
52105;BME280;38103;42.776;23.112;2023-04-06T04:49:50;93597.63;;;-1.05;100.00
52105;BME280;38103;42.776;23.112;2023-04-06T04:52:16;93591.78;;;-1.07;100.00
52105;BME280;38103;42.776;23.112;2023-04-06T04:54:41;93596.03;;;-1.06;100.00
52105;BME280;38103;42.776;23.112;2023-04-06T04:57:06;93598.91;;;-1.00;100.00
52105;BME280;38103;42.776;23.112;2023-04-06T04:59:33;93593.34;;;-0.97;100.00
52105;BME280;38103;42.776;23.112;2023-04-06T05:01:58;93580.66;;;-0.92;100.00
52105;BME280;38103;42.776;23.112;2023-04-06T05:04:24;93589.78;;;-0.96;100.00
52105;BME280;38103;42.776;23.112;2023-04-06T05:06:50;93581.47;;;-0.92;100.00
52105;BME280;38103;42.776;23.112;2023-04-06T05:09:15;93582.41;;;-0.84;100.00
52105;BME280;38103;42.776;23.112;2023-04-06T05:11:41;93586.44;;;-0.82;100.00
52105;BME280;38103;42.776;23.112;2023-04-06T05:14:06;93593.38;;;-0.74;100.00
52105;BME280;38103;42.776;23.112;2023-04-06T05:16:33;93568.28;;;-0.82;100.00
52105;BME280;38103;42.776;23.112;2023-04-06T05:18:59;93587.31;;;-0.66;100.00
52105;BME280;38103;42.776;23.112;2023-04-06T05:21:24;93586.78;;;-0.61;100.00
52105;BME280;38103;42.776;23.112;2023-04-06T05:23:51;93581.34;;;-0.51;100.00
52105;BME280;38103;42.776;23.112;2023-04-06T05:26:16;93590.13;;;-0.52;100.00
52105;BME280;38103;42.776;23.112;2023-04-06T05:28:42;93578.47;;;-0.57;100.00
52105;BME280;38103;42.776;23.112;2023-04-06T05:31:09;93548.09;;;-0.71;100.00
52105;BME280;38103;42.776;23.112;2023-04-06T05:33:34;93575.81;;;-0.48;100.00
52105;BME280;38103;42.776;23.112;2023-04-06T05:36:00;93579.41;;;-0.49;100.00
52105;BME280;38103;42.776;23.112;2023-04-06T05:38:26;93587.81;;;-0.47;100.00
52105;BME280;38103;42.776;23.112;2023-04-06T05:40:51;93575.81;;;-0.48;100.00
52105;BME280;38103;42.776;23.112;2023-04-06T05:43:16;93572.25;;;-0.47;100.00
52105;BME280;38103;42.776;23.112;2023-04-06T05:45:44;93566.72;;;-0.44;100.00
52105;BME280;38103;42.776;23.112;2023-04-06T05:48:10;93580.31;;;-0.42;100.00
52105;BME280;38103;42.776;23.112;2023-04-06T05:50:36;93579.25;;;-0.32;100.00
52105;BME280;38103;42.776;23.112;2023-04-06T05:53:01;93572.72;;;-0.28;100.00
52105;BME280;38103;42.776;23.112;2023-04-06T05:55:26;93567.16;;;-0.25;100.00
52105;BME280;38103;42.776;23.112;2023-04-06T05:57:53;93556.94;;;-0.42;100.00
52105;BME280;38103;42.776;23.112;2023-04-06T06:00:18;93573.09;;;-0.31;100.00
52105;BME280;38103;42.776;23.112;2023-04-06T06:02:44;93557.22;;;-0.37;100.00
52105;BME280;38103;42.776;23.112;2023-04-06T06:05:10;93576.75;;;-0.26;100.00
52105;BME280;38103;42.776;23.112;2023-04-06T06:07:36;93525.50;;;-0.47;100.00
52105;BME280;38103;42.776;23.112;2023-04-06T06:10:01;93569.16;;;-0.12;100.00
52105;BME280;38103;42.776;23.112;2023-04-06T06:12:27;93573.00;;;-0.23;100.00
52105;BME280;38103;42.776;23.112;2023-04-06T06:14:52;93574.34;;;-0.27;100.00
52105;BME280;38103;42.776;23.112;2023-04-06T06:17:17;93572.00;;;-0.37;100.00
52105;BME280;38103;42.776;23.112;2023-04-06T06:19:43;93575.66;;;-0.47;100.00
52105;BME280;38103;42.776;23.112;2023-04-06T06:22:08;93570.75;;;-0.41;100.00
52105;BME280;38103;42.776;23.112;2023-04-06T06:24:34;93569.19;;;-0.51;100.00
52105;BME280;38103;42.776;23.112;2023-04-06T06:26:59;93566.72;;;-0.44;100.00
52105;BME280;38103;42.776;23.112;2023-04-06T06:29:25;93573.16;;;-0.40;100.00
52105;BME280;38103;42.776;23.112;2023-04-06T06:31:50;93567.59;;;-0.37;100.00
52105;BME280;38103;42.776;23.112;2023-04-06T06:34:16;93570.22;;;-0.37;100.00
52105;BME280;38103;42.776;23.112;2023-04-06T06:36:41;93565.44;;;-0.33;100.00
52105;BME280;38103;42.776;23.112;2023-04-06T06:39:06;93572.63;;;-0.20;100.00
52105;BME280;38103;42.776;23.112;2023-04-06T06:41:32;93568.94;;;-0.26;100.00
52105;BME280;38103;42.776;23.112;2023-04-06T06:43:57;93568.16;;;-0.26;100.00
52105;BME280;38103;42.776;23.112;2023-04-06T06:46:23;93566.56;;;-0.12;100.00
52105;BME280;38103;42.776;23.112;2023-04-06T06:48:48;93572.16;;;0.00;100.00
52105;BME280;38103;42.776;23.112;2023-04-06T06:51:13;93574.28;;;0.12;100.00
52105;BME280;38103;42.776;23.112;2023-04-06T06:53:39;93573.41;;;0.19;100.00
52105;BME280;38103;42.776;23.112;2023-04-06T06:56:05;93577.34;;;0.30;100.00
52105;BME280;38103;42.776;23.112;2023-04-06T06:58:31;93584.16;;;0.31;100.00
52105;BME280;38103;42.776;23.112;2023-04-06T07:00:59;93582.19;;;0.33;100.00
52105;BME280;38103;42.776;23.112;2023-04-06T07:03:25;93545.69;;;-0.04;100.00
52105;BME280;38103;42.776;23.112;2023-04-06T07:05:51;93592.84;;;0.24;100.00
52105;BME280;38103;42.776;23.112;2023-04-06T07:08:23;93595.72;;;0.29;100.00
52105;BME280;38103;42.776;23.112;2023-04-06T07:10:52;93551.59;;;-0.10;100.00
52105;BME280;38103;42.776;23.112;2023-04-06T07:13:18;93590.78;;;0.19;100.00
52105;BME280;38103;42.776;23.112;2023-04-06T07:15:48;93590.97;;;0.32;100.00
52105;BME280;38103;42.776;23.112;2023-04-06T07:18:13;93592.59;;;0.33;100.00
52105;BME280;38103;42.776;23.112;2023-04-06T07:20:39;93585.03;;;0.08;100.00
52105;BME280;38103;42.776;23.112;2023-04-06T07:23:04;93599.72;;;0.01;100.00
52105;BME280;38103;42.776;23.112;2023-04-06T07:25:30;93599.94;;;0.15;100.00
52105;BME280;38103;42.776;23.112;2023-04-06T07:27:56;93589.63;;;0.21;100.00
52105;BME280;38103;42.776;23.112;2023-04-06T07:30:22;93549.53;;;0.16;100.00
52105;BME280;38103;42.776;23.112;2023-04-06T07:32:48;93543.56;;;0.15;100.00
52105;BME280;38103;42.776;23.112;2023-04-06T07:35:14;93589.78;;;0.50;100.00
52105;BME280;38103;42.776;23.112;2023-04-06T07:37:40;93586.09;;;0.60;100.00
52105;BME280;38103;42.776;23.112;2023-04-06T07:40:06;93588.81;;;0.51;100.00
52105;BME280;38103;42.776;23.112;2023-04-06T07:42:31;93586.00;;;0.68;100.00
52105;BME280;38103;42.776;23.112;2023-04-06T07:44:58;93589.38;;;0.84;100.00
52105;BME280;38103;42.776;23.112;2023-04-06T07:47:23;93586.41;;;0.87;100.00
52105;BME280;38103;42.776;23.112;2023-04-06T07:49:49;93524.31;;;0.47;100.00
52105;BME280;38103;42.776;23.112;2023-04-06T07:52:15;93575.78;;;1.04;100.00
52105;BME280;38103;42.776;23.112;2023-04-06T07:54:41;93560.53;;;1.00;100.00
52105;BME280;38103;42.776;23.112;2023-04-06T07:57:06;93585.59;;;1.24;100.00
52105;BME280;38103;42.776;23.112;2023-04-06T07:59:32;93588.94;;;1.39;100.00
52105;BME280;38103;42.776;23.112;2023-04-06T08:01:57;93589.81;;;1.47;100.00
52105;BME280;38103;42.776;23.112;2023-04-06T08:04:23;93585.22;;;1.49;100.00
52105;BME280;38103;42.776;23.112;2023-04-06T08:06:48;93589.06;;;1.53;100.00
52105;BME280;38103;42.776;23.112;2023-04-06T08:09:13;93589.19;;;1.44;100.00
52105;BME280;38103;42.776;23.112;2023-04-06T08:11:39;93587.63;;;1.50;100.00
52105;BME280;38103;42.776;23.112;2023-04-06T08:14:04;93589.06;;;1.53;100.00
52105;BME280;38103;42.776;23.112;2023-04-06T08:16:30;93579.94;;;1.64;100.00
52105;BME280;38103;42.776;23.112;2023-04-06T08:18:55;93585.59;;;1.67;100.00
52105;BME280;38103;42.776;23.112;2023-04-06T08:21:21;93588.41;;;1.73;100.00
52105;BME280;38103;42.776;23.112;2023-04-06T08:23:46;93582.22;;;1.74;100.00
52105;BME280;38103;42.776;23.112;2023-04-06T08:26:12;93591.66;;;1.75;100.00
52105;BME280;38103;42.776;23.112;2023-04-06T08:28:37;93593.88;;;1.78;100.00
52105;BME280;38103;42.776;23.112;2023-04-06T08:31:06;93599.22;;;1.70;100.00
52105;BME280;38103;42.776;23.112;2023-04-06T08:33:32;93592.03;;;1.72;100.00
52105;BME280;38103;42.776;23.112;2023-04-06T08:36:07;93598.38;;;1.62;100.00
52105;BME280;38103;42.776;23.112;2023-04-06T08:38:32;93592.28;;;1.55;100.00
52105;BME280;38103;42.776;23.112;2023-04-06T08:40:58;93595.88;;;1.54;100.00
52105;BME280;38103;42.776;23.112;2023-04-06T08:43:25;93593.69;;;1.58;100.00
52105;BME280;38103;42.776;23.112;2023-04-06T08:45:52;93601.16;;;1.61;100.00
52105;BME280;38103;42.776;23.112;2023-04-06T08:48:17;93598.38;;;1.62;100.00
52105;BME280;38103;42.776;23.112;2023-04-06T08:50:43;93584.97;;;1.43;100.00
52105;BME280;38103;42.776;23.112;2023-04-06T08:53:11;93599.16;;;1.63;100.00
52105;BME280;38103;42.776;23.112;2023-04-06T08:55:37;93598.22;;;1.71;100.00
52105;BME280;38103;42.776;23.112;2023-04-06T08:58:03;93602.00;;;1.68;100.00
52105;BME280;38103;42.776;23.112;2023-04-06T09:00:31;93597.66;;;1.75;99.23
52105;BME280;38103;42.776;23.112;2023-04-06T09:02:57;93584.25;;;1.78;100.00
52105;BME280;38103;42.776;23.112;2023-04-06T09:05:24;93588.16;;;1.89;100.00
52105;BME280;38103;42.776;23.112;2023-04-06T15:48:25;93508.97;;;2.40;71.04
52105;BME280;38103;42.776;23.112;2023-04-06T15:50:50;93503.72;;;2.26;71.10
52105;BME280;38103;42.776;23.112;2023-04-06T15:53:15;93504.94;;;2.30;70.88
52105;BME280;38103;42.776;23.112;2023-04-06T15:55:41;93502.94;;;2.32;71.00
52105;BME280;38103;42.776;23.112;2023-04-06T15:58:06;93504.09;;;2.23;70.57
52105;BME280;38103;42.776;23.112;2023-04-06T16:00:32;93499.72;;;2.30;71.72
52105;BME280;38103;42.776;23.112;2023-04-06T16:02:57;93494.50;;;2.30;69.95
52105;BME280;38103;42.776;23.112;2023-04-06T16:05:22;93491.72;;;2.39;70.33
52105;BME280;38103;42.776;23.112;2023-04-06T16:07:48;93503.16;;;2.38;69.97
52105;BME280;38103;42.776;23.112;2023-04-06T16:10:13;93495.31;;;2.38;69.67
52105;BME280;38103;42.776;23.112;2023-04-06T16:12:38;93499.09;;;2.28;70.74
52105;BME280;38103;42.776;23.112;2023-04-06T16:15:07;93503.34;;;2.29;70.15
52105;BME280;38103;42.776;23.112;2023-04-06T16:17:33;93498.88;;;2.23;70.76
52105;BME280;38103;42.776;23.112;2023-04-06T16:19:58;93506.31;;;2.26;70.45
52105;BME280;38103;42.776;23.112;2023-04-06T16:22:24;93511.31;;;2.21;69.40
52105;BME280;38103;42.776;23.112;2023-04-06T16:24:50;93516.16;;;2.24;69.94
52105;BME280;38103;42.776;23.112;2023-04-06T16:27:15;93511.91;;;2.23;69.56
52105;BME280;38103;42.776;23.112;2023-04-06T16:29:41;93524.13;;;2.16;69.73
52105;BME280;38103;42.776;23.112;2023-04-06T16:32:07;93515.47;;;2.08;70.27
52105;BME280;38103;42.776;23.112;2023-04-06T16:34:35;93516.84;;;2.04;70.50
52105;BME280;38103;42.776;23.112;2023-04-06T16:37:00;93522.44;;;2.01;70.40
52105;BME280;38103;42.776;23.112;2023-04-06T16:39:26;93519.22;;;1.99;70.82
52105;BME280;38103;42.776;23.112;2023-04-06T16:41:51;93517.66;;;2.05;70.21
52105;BME280;38103;42.776;23.112;2023-04-06T16:44:16;93520.25;;;2.05;68.87
52105;BME280;38103;42.776;23.112;2023-04-06T16:46:42;93521.28;;;2.10;68.52
52105;BME280;38103;42.776;23.112;2023-04-06T16:49:08;93523.06;;;2.03;68.20
52105;BME280;38103;42.776;23.112;2023-04-06T16:51:33;93527.00;;;1.92;68.76
52105;BME280;38103;42.776;23.112;2023-04-06T16:54:01;93519.63;;;1.96;68.92
52105;BME280;38103;42.776;23.112;2023-04-06T16:56:26;93522.75;;;1.84;69.44
52105;BME280;38103;42.776;23.112;2023-04-06T16:58:52;93526.66;;;1.73;70.50
52105;BME280;38103;42.776;23.112;2023-04-06T17:01:18;93526.63;;;1.66;70.76
52105;BME280;38103;42.776;23.112;2023-04-06T17:03:43;93530.16;;;1.52;70.77
52105;BME280;38103;42.776;23.112;2023-04-06T17:06:10;93529.38;;;1.58;71.59
52105;BME280;38103;42.776;23.112;2023-04-06T17:08:35;93519.72;;;1.52;71.08
52105;BME280;38103;42.776;23.112;2023-04-06T17:11:00;93533.47;;;1.67;71.39
52105;BME280;38103;42.776;23.112;2023-04-06T17:13:26;93538.00;;;1.59;71.81
52105;BME280;38103;42.776;23.112;2023-04-06T17:15:51;93544.63;;;1.61;71.36
52105;BME280;38103;42.776;23.112;2023-04-06T17:18:17;93548.22;;;1.60;70.45
52105;BME280;38103;42.776;23.112;2023-04-06T17:20:42;93548.63;;;1.57;70.33
52105;BME280;38103;42.776;23.112;2023-04-06T17:23:11;93550.59;;;1.55;69.65
52105;BME280;38103;42.776;23.112;2023-04-06T17:25:36;93557.19;;;1.51;69.39
52105;BME280;38103;42.776;23.112;2023-04-06T17:28:01;93567.22;;;1.54;68.65
52105;BME280;38103;42.776;23.112;2023-04-06T17:30:27;93568.81;;;1.55;69.05
52105;BME280;38103;42.776;23.112;2023-04-06T17:32:52;93570.56;;;1.48;69.63
52105;BME280;38103;42.776;23.112;2023-04-06T17:35:18;93572.94;;;1.42;69.77
52105;BME280;38103;42.776;23.112;2023-04-06T17:37:43;93574.56;;;1.43;68.62
52105;BME280;38103;42.776;23.112;2023-04-06T17:40:10;93579.41;;;1.47;69.14
52105;BME280;38103;42.776;23.112;2023-04-06T17:42:35;93587.22;;;1.47;69.53
52105;BME280;38103;42.776;23.112;2023-04-06T17:45:00;93583.97;;;1.44;69.70
52105;BME280;38103;42.776;23.112;2023-04-06T17:47:26;93587.81;;;1.49;69.02
52105;BME280;38103;42.776;23.112;2023-04-06T17:49:59;93591.66;;;1.53;68.88
52105;BME280;38103;42.776;23.112;2023-04-06T17:52:29;93593.44;;;1.52;68.84
52105;BME280;38103;42.776;23.112;2023-04-06T17:54:54;93594.88;;;1.55;68.33
52105;BME280;38103;42.776;23.112;2023-04-06T17:57:20;93581.00;;;1.48;68.07
52105;BME280;38103;42.776;23.112;2023-04-06T17:59:46;93594.47;;;1.51;68.30
52105;BME280;38103;42.776;23.112;2023-04-06T18:02:11;93598.75;;;1.59;67.88
52105;BME280;38103;42.776;23.112;2023-04-06T18:04:37;93601.50;;;1.58;67.88
52105;BME280;38103;42.776;23.112;2023-04-06T18:07:04;93609.41;;;1.64;67.43
52105;BME280;38103;42.776;23.112;2023-04-06T18:09:30;93617.66;;;1.68;66.94
52105;BME280;38103;42.776;23.112;2023-04-06T18:11:56;93601.91;;;1.54;66.29
52105;BME280;38103;42.776;23.112;2023-04-06T18:14:22;93630.06;;;1.66;65.94
52105;BME280;38103;42.776;23.112;2023-04-06T18:16:47;93630.75;;;1.75;65.36
52105;BME280;38103;42.776;23.112;2023-04-06T18:19:12;93610.41;;;1.63;64.94
52105;BME280;38103;42.776;23.112;2023-04-06T18:21:38;93639.44;;;1.82;65.23
52105;BME280;38103;42.776;23.112;2023-04-06T18:24:04;93640.66;;;1.86;64.49
52105;BME280;38103;42.776;23.112;2023-04-06T18:26:29;93624.53;;;1.76;64.84
52105;BME280;38103;42.776;23.112;2023-04-06T18:28:55;93641.91;;;1.91;64.39
52105;BME280;38103;42.776;23.112;2023-04-06T18:31:20;93640.34;;;1.96;64.44
52105;BME280;38103;42.776;23.112;2023-04-06T18:33:46;93646.72;;;1.94;63.92
52105;BME280;38103;42.776;23.112;2023-04-06T18:36:11;93643.13;;;1.95;64.52
52105;BME280;38103;42.776;23.112;2023-04-06T18:38:41;93648.34;;;1.95;64.46
52105;BME280;38103;42.776;23.112;2023-04-06T18:41:07;93653.19;;;1.98;64.02
52105;BME280;38103;42.776;23.112;2023-04-06T18:43:32;93653.19;;;1.98;63.74
52105;BME280;38103;42.776;23.112;2023-04-06T18:45:58;93651.94;;;1.94;63.72
52105;BME280;38103;42.776;23.112;2023-04-06T18:48:24;93649.09;;;1.88;63.45
52105;BME280;38103;42.776;23.112;2023-04-06T18:50:55;93654.31;;;1.88;63.61
52105;BME280;38103;42.776;23.112;2023-04-06T18:53:24;93655.81;;;1.76;64.07
52105;BME280;38103;42.776;23.112;2023-04-06T18:55:49;93658.97;;;1.71;63.94
52105;BME280;38103;42.776;23.112;2023-04-06T18:58:15;93656.97;;;1.73;64.68
52105;BME280;38103;42.776;23.112;2023-04-06T19:00:41;93658.16;;;1.71;65.08
52105;BME280;38103;42.776;23.112;2023-04-06T19:03:07;93657.44;;;1.77;64.97
52105;BME280;38103;42.776;23.112;2023-04-06T19:05:33;93655.44;;;1.79;64.79
52105;BME280;38103;42.776;23.112;2023-04-06T19:07:58;93660.28;;;1.82;64.93
52105;BME280;38103;42.776;23.112;2023-04-06T19:10:23;93661.50;;;1.86;65.06
52105;BME280;38103;42.776;23.112;2023-04-06T19:12:49;93657.91;;;1.87;64.79
52105;BME280;38103;42.776;23.112;2023-04-06T19:15:14;93665.91;;;1.86;64.52
52105;BME280;38103;42.776;23.112;2023-04-06T19:17:40;93668.34;;;1.87;64.92
52105;BME280;38103;42.776;23.112;2023-04-06T19:20:06;93661.09;;;1.83;64.73